Bloomingdale, MI (49026)

10:00 PM EST on December 22, 2014 (GMT -0500)
MesoWest Grandjunction MI US MAWN | Change Station
CLOSE
Current Station
Personal Weather Station
Location: Grand Junction, MI
Elevation: 686 ft
Nearby Weather Stations

Elev 686 ft 42.40 °N, 86.07 °W | Updated 60 minutes ago

Rain
Rain
37 °F
Feels Like 32 °F
N
7
Wind Variable Wind from East
Gusts 0.0 mph

Today
High -- | Low -- °F
--% Chance of Precip.
Yesterday
High -- | Low -- °F
Precip. -- in
8:10 AM 5:14 PM
New Moon, 2% visible
Pressure 29.74 in
Visibility 4.0 miles
Clouds Scattered Clouds 2600 ft
Mostly Cloudy 3300 ft
Overcast 4200 ft
Windchill 32 °F
Dew Point 35 °F
Humidity 91%
Rainfall -999.00 in
Snow Depth Not available.
UV 0 out of 12
Pollen .10 out of 12
Air Quality Not available.
Flu Activity Not available.
METAR KLWA 230255Z AUTO 11009KT 4SM -RA SCT026 BKN033 OVC042 03/02 A2974 RMK AO2 T00330020

More Conditions Fewer Conditions

Pressure 29.74 in
Visibility 4.0 miles
Clouds Scattered Clouds 2600 ft
Mostly Cloudy 3300 ft
Overcast 4200 ft
Windchill 32 °F
Dew Point 35 °F
Humidity 91%
Rainfall -999.00 in
Snow Depth Not available.
UV 0 out of 12
Pollen .10 out of 12
Air Quality Not available.
Flu Activity Not available.
METAR KLWA 230255Z AUTO 11009KT 4SM -RA SCT026 BKN033 OVC042 03/02 A2974 RMK AO2 T00330020

More Conditions Fewer Conditions

10-Day Weather Forecast

Almanac

Astronomy

Dec. 22, 2014 Rise Set
Actual Time
Civil Twilight
Nautical Twilight
Astronomical Twilight
Moon
Length of Visible Light
Length of Day
Tomorrow will be .
, % of the Moon is Illuminated

Today's Extremes

State Highs State Lows

Community

WunderPhotos

Upload Photos

1,779,762 photos uploaded!

WunderBlogs® & News

Nearby

Air Quality

  Air Quality AQ Index Pollutant
Not available.

Snow Depth

Station Depth Elevation

Earthquake Activity

City Distance Mag. Time & Date
Minimum magnitude displayed is 2.5.

Coastal Water Temperatures

Place Temperature

Nearby Weather Stations